Terminal Aerodrome Forecast
Issued by NWS

Home | Current Version | Previous Version | Text Only | Print | Product List | Glossary On
Versions: 1 2 3 4 5 6 7 8 9 10 11 12 13 14 15 16 17 18 19 20 21 22 23 24 25 26 27 28 29 30 31 32 33 34 35 36 37
000
FTUS45 KGJT 300538
TAFDRO
TAF
KDRO 300538Z 3006/3106 08008KT P6SM FEW250
     FM301800 29004KT P6SM FEW110 BKN250
     FM302100 28008KT P6SM SCT110 SCT250
     FM310300 02005KT P6SM BKN140=

USA.gov is the U.S. government's official web portal to all federal, state and local government web resources and services.